sensor_id;sensor_type;location;lat;lon;timestamp;P1;durP1;ratioP1;P2;durP2;ratioP2
17650;SDS011;26663;59.302;18.082;2022-08-11T00:01:36;2.95;;;2.63;;
17650;SDS011;26663;59.302;18.082;2022-08-11T00:04:42;6.38;;;2.50;;
17650;SDS011;26663;59.302;18.082;2022-08-11T00:07:49;2.63;;;2.53;;
17650;SDS011;26663;59.302;18.082;2022-08-11T00:10:57;2.72;;;2.30;;
17650;SDS011;26663;59.302;18.082;2022-08-11T00:14:16;3.13;;;2.30;;
17650;SDS011;26663;59.302;18.082;2022-08-11T00:17:26;5.97;;;2.25;;
17650;SDS011;26663;59.302;18.082;2022-08-11T00:20:34;5.85;;;3.00;;
17650;SDS011;26663;59.302;18.082;2022-08-11T00:23:45;6.55;;;2.33;;
17650;SDS011;26663;59.302;18.082;2022-08-11T00:26:56;2.28;;;2.28;;
17650;SDS011;26663;59.302;18.082;2022-08-11T00:30:01;4.55;;;2.63;;
17650;SDS011;26663;59.302;18.082;2022-08-11T00:33:09;3.63;;;2.13;;
17650;SDS011;26663;59.302;18.082;2022-08-11T00:36:16;5.68;;;2.30;;
17650;SDS011;26663;59.302;18.082;2022-08-11T00:39:29;2.58;;;2.38;;
17650;SDS011;26663;59.302;18.082;2022-08-11T00:42:49;2.20;;;2.00;;
17650;SDS011;26663;59.302;18.082;2022-08-11T00:46:07;2.10;;;2.00;;
17650;SDS011;26663;59.302;18.082;2022-08-11T00:49:23;1.83;;;1.80;;
17650;SDS011;26663;59.302;18.082;2022-08-11T00:52:53;5.53;;;2.03;;
17650;SDS011;26663;59.302;18.082;2022-08-11T00:57:06;4.72;;;2.00;;
17650;SDS011;26663;59.302;18.082;2022-08-11T01:00:47;2.70;;;2.13;;
17650;SDS011;26663;59.302;18.082;2022-08-11T01:04:19;2.78;;;2.58;;
17650;SDS011;26663;59.302;18.082;2022-08-11T01:11:54;2.63;;;2.33;;
17650;SDS011;26663;59.302;18.082;2022-08-11T01:15:36;6.55;;;2.33;;
17650;SDS011;26663;59.302;18.082;2022-08-11T01:19:27;2.75;;;2.55;;
17650;SDS011;26663;59.302;18.082;2022-08-11T01:23:48;5.95;;;2.97;;
17650;SDS011;26663;59.302;18.082;2022-08-11T01:27:55;6.38;;;2.55;;
17650;SDS011;26663;59.302;18.082;2022-08-11T01:31:45;6.40;;;2.90;;
17650;SDS011;26663;59.302;18.082;2022-08-11T01:35:23;4.47;;;2.67;;
17650;SDS011;26663;59.302;18.082;2022-08-11T01:39:00;3.60;;;2.72;;
17650;SDS011;26663;59.302;18.082;2022-08-11T01:42:45;6.72;;;2.40;;
17650;SDS011;26663;59.302;18.082;2022-08-11T01:47:11;4.05;;;3.30;;
17650;SDS011;26663;59.302;18.082;2022-08-11T01:51:10;4.38;;;3.38;;
17650;SDS011;26663;59.302;18.082;2022-08-11T01:54:24;3.70;;;2.85;;
17650;SDS011;26663;59.302;18.082;2022-08-11T01:57:35;4.50;;;2.30;;
17650;SDS011;26663;59.302;18.082;2022-08-11T02:00:47;5.30;;;2.42;;
17650;SDS011;26663;59.302;18.082;2022-08-11T02:03:59;3.08;;;1.90;;
17650;SDS011;26663;59.302;18.082;2022-08-11T02:07:16;3.17;;;1.90;;
17650;SDS011;26663;59.302;18.082;2022-08-11T02:10:26;1.90;;;1.88;;
17650;SDS011;26663;59.302;18.082;2022-08-11T02:13:57;2.33;;;2.15;;
17650;SDS011;26663;59.302;18.082;2022-08-11T02:17:12;2.28;;;2.10;;
17650;SDS011;26663;59.302;18.082;2022-08-11T02:20:22;2.20;;;2.20;;
17650;SDS011;26663;59.302;18.082;2022-08-11T02:23:50;2.58;;;2.20;;
17650;SDS011;26663;59.302;18.082;2022-08-11T02:27:13;4.05;;;2.50;;
17650;SDS011;26663;59.302;18.082;2022-08-11T02:30:25;5.47;;;2.10;;
17650;SDS011;26663;59.302;18.082;2022-08-11T02:33:37;2.20;;;2.10;;
17650;SDS011;26663;59.302;18.082;2022-08-11T02:36:47;2.00;;;1.90;;
17650;SDS011;26663;59.302;18.082;2022-08-11T02:40:29;2.92;;;2.67;;
17650;SDS011;26663;59.302;18.082;2022-08-11T02:43:44;2.47;;;2.13;;
17650;SDS011;26663;59.302;18.082;2022-08-11T02:46:55;2.00;;;2.00;;
17650;SDS011;26663;59.302;18.082;2022-08-11T02:50:11;2.42;;;2.22;;
17650;SDS011;26663;59.302;18.082;2022-08-11T02:53:21;2.45;;;2.25;;
17650;SDS011;26663;59.302;18.082;2022-08-11T02:56:38;2.30;;;2.10;;
17650;SDS011;26663;59.302;18.082;2022-08-11T02:59:50;2.00;;;2.00;;
17650;SDS011;26663;59.302;18.082;2022-08-11T03:03:06;2.50;;;2.40;;
17650;SDS011;26663;59.302;18.082;2022-08-11T03:06:23;2.50;;;2.40;;
17650;SDS011;26663;59.302;18.082;2022-08-11T03:09:42;2.45;;;2.28;;
17650;SDS011;26663;59.302;18.082;2022-08-11T03:13:03;2.53;;;2.42;;
17650;SDS011;26663;59.302;18.082;2022-08-11T03:16:36;2.28;;;2.10;;
17650;SDS011;26663;59.302;18.082;2022-08-11T03:19:53;2.25;;;2.20;;
17650;SDS011;26663;59.302;18.082;2022-08-11T03:23:16;2.20;;;2.10;;
17650;SDS011;26663;59.302;18.082;2022-08-11T03:26:29;2.63;;;2.22;;
17650;SDS011;26663;59.302;18.082;2022-08-11T03:29:43;2.63;;;2.13;;
17650;SDS011;26663;59.302;18.082;2022-08-11T03:32:57;2.67;;;2.47;;
17650;SDS011;26663;59.302;18.082;2022-08-11T03:40:51;5.47;;;2.50;;
17650;SDS011;26663;59.302;18.082;2022-08-11T03:44:52;3.95;;;2.28;;
17650;SDS011;26663;59.302;18.082;2022-08-11T03:48:12;2.30;;;2.20;;
17650;SDS011;26663;59.302;18.082;2022-08-11T03:51:26;2.63;;;2.53;;
17650;SDS011;26663;59.302;18.082;2022-08-11T03:54:58;2.72;;;2.53;;
17650;SDS011;26663;59.302;18.082;2022-08-11T03:58:37;2.25;;;2.17;;
17650;SDS011;26663;59.302;18.082;2022-08-11T04:02:41;3.50;;;2.30;;
17650;SDS011;26663;59.302;18.082;2022-08-11T04:06:37;2.08;;;2.00;;
17650;SDS011;26663;59.302;18.082;2022-08-11T04:10:28;2.40;;;2.35;;
17650;SDS011;26663;59.302;18.082;2022-08-11T04:14:03;5.13;;;2.20;;
17650;SDS011;26663;59.302;18.082;2022-08-11T04:17:49;4.22;;;3.25;;
17650;SDS011;26663;59.302;18.082;2022-08-11T04:21:49;2.33;;;2.25;;
17650;SDS011;26663;59.302;18.082;2022-08-11T04:25:15;2.50;;;2.30;;
17650;SDS011;26663;59.302;18.082;2022-08-11T04:28:47;5.75;;;2.45;;
17650;SDS011;26663;59.302;18.082;2022-08-11T04:32:00;2.50;;;2.30;;
17650;SDS011;26663;59.302;18.082;2022-08-11T04:35:25;2.65;;;2.30;;
17650;SDS011;26663;59.302;18.082;2022-08-11T04:39:03;2.80;;;2.50;;
17650;SDS011;26663;59.302;18.082;2022-08-11T04:46:47;2.67;;;2.58;;
17650;SDS011;26663;59.302;18.082;2022-08-11T04:50:26;2.60;;;2.38;;
17650;SDS011;26663;59.302;18.082;2022-08-11T04:54:22;2.22;;;2.13;;
17650;SDS011;26663;59.302;18.082;2022-08-11T04:58:00;9.32;;;2.67;;
17650;SDS011;26663;59.302;18.082;2022-08-11T05:01:37;4.07;;;2.70;;
17650;SDS011;26663;59.302;18.082;2022-08-11T05:05:08;2.70;;;2.55;;
17650;SDS011;26663;59.302;18.082;2022-08-11T05:12:27;2.67;;;2.67;;
17650;SDS011;26663;59.302;18.082;2022-08-11T05:15:41;6.00;;;2.60;;
17650;SDS011;26663;59.302;18.082;2022-08-11T05:19:14;4.13;;;2.55;;
17650;SDS011;26663;59.302;18.082;2022-08-11T05:22:37;4.13;;;2.85;;
17650;SDS011;26663;59.302;18.082;2022-08-11T05:26:11;2.75;;;2.55;;
17650;SDS011;26663;59.302;18.082;2022-08-11T05:29:52;4.30;;;2.30;;
17650;SDS011;26663;59.302;18.082;2022-08-11T05:33:20;2.92;;;2.60;;
17650;SDS011;26663;59.302;18.082;2022-08-11T05:36:54;2.63;;;2.50;;
17650;SDS011;26663;59.302;18.082;2022-08-11T05:40:25;3.83;;;2.25;;
17650;SDS011;26663;59.302;18.082;2022-08-11T05:43:57;5.38;;;3.03;;
17650;SDS011;26663;59.302;18.082;2022-08-11T05:47:24;5.10;;;2.63;;
17650;SDS011;26663;59.302;18.082;2022-08-11T05:50:51;4.55;;;2.47;;
17650;SDS011;26663;59.302;18.082;2022-08-11T05:54:18;4.10;;;2.55;;
17650;SDS011;26663;59.302;18.082;2022-08-11T05:57:41;3.58;;;3.00;;
17650;SDS011;26663;59.302;18.082;2022-08-11T06:00:55;2.38;;;2.28;;
17650;SDS011;26663;59.302;18.082;2022-08-11T06:04:04;2.58;;;2.30;;
17650;SDS011;26663;59.302;18.082;2022-08-11T06:07:25;2.35;;;2.25;;
17650;SDS011;26663;59.302;18.082;2022-08-11T06:10:49;2.53;;;2.40;;
17650;SDS011;26663;59.302;18.082;2022-08-11T06:13:55;3.75;;;2.38;;
17650;SDS011;26663;59.302;18.082;2022-08-11T06:17:02;4.57;;;2.30;;
17650;SDS011;26663;59.302;18.082;2022-08-11T06:20:10;5.03;;;2.28;;
17650;SDS011;26663;59.302;18.082;2022-08-11T06:23:16;2.38;;;2.08;;
17650;SDS011;26663;59.302;18.082;2022-08-11T06:26:25;2.25;;;2.08;;
17650;SDS011;26663;59.302;18.082;2022-08-11T06:29:30;2.58;;;2.30;;
17650;SDS011;26663;59.302;18.082;2022-08-11T06:32:50;2.70;;;2.17;;
17650;SDS011;26663;59.302;18.082;2022-08-11T06:36:01;3.58;;;2.45;;
17650;SDS011;26663;59.302;18.082;2022-08-11T06:39:13;2.20;;;2.10;;
17650;SDS011;26663;59.302;18.082;2022-08-11T06:42:37;2.08;;;1.98;;
17650;SDS011;26663;59.302;18.082;2022-08-11T06:45:54;5.53;;;2.30;;
17650;SDS011;26663;59.302;18.082;2022-08-11T06:49:08;2.88;;;2.28;;
17650;SDS011;26663;59.302;18.082;2022-08-11T06:52:29;2.70;;;2.47;;
17650;SDS011;26663;59.302;18.082;2022-08-11T06:55:39;3.85;;;2.30;;
17650;SDS011;26663;59.302;18.082;2022-08-11T06:59:03;2.17;;;2.08;;
17650;SDS011;26663;59.302;18.082;2022-08-11T07:02:27;4.18;;;2.20;;
17650;SDS011;26663;59.302;18.082;2022-08-11T07:05:39;3.33;;;2.72;;
17650;SDS011;26663;59.302;18.082;2022-08-11T07:12:38;3.42;;;2.38;;
17650;SDS011;26663;59.302;18.082;2022-08-11T07:16:02;3.88;;;2.50;;
17650;SDS011;26663;59.302;18.082;2022-08-11T07:19:16;3.83;;;2.40;;
17650;SDS011;26663;59.302;18.082;2022-08-11T07:22:48;3.60;;;2.40;;
17650;SDS011;26663;59.302;18.082;2022-08-11T07:26:15;2.53;;;2.50;;
17650;SDS011;26663;59.302;18.082;2022-08-11T07:29:38;3.08;;;2.40;;
17650;SDS011;26663;59.302;18.082;2022-08-11T07:32:48;2.25;;;1.95;;
17650;SDS011;26663;59.302;18.082;2022-08-11T07:36:04;2.50;;;2.10;;
17650;SDS011;26663;59.302;18.082;2022-08-11T07:39:18;2.33;;;2.13;;
17650;SDS011;26663;59.302;18.082;2022-08-11T07:42:27;4.82;;;2.20;;
17650;SDS011;26663;59.302;18.082;2022-08-11T07:45:41;2.33;;;2.13;;
17650;SDS011;26663;59.302;18.082;2022-08-11T07:49:05;4.00;;;1.98;;
17650;SDS011;26663;59.302;18.082;2022-08-11T07:52:30;2.33;;;2.10;;
17650;SDS011;26663;59.302;18.082;2022-08-11T07:55:41;6.47;;;2.40;;
17650;SDS011;26663;59.302;18.082;2022-08-11T07:58:53;3.70;;;2.10;;
17650;SDS011;26663;59.302;18.082;2022-08-11T08:02:18;2.13;;;1.92;;
17650;SDS011;26663;59.302;18.082;2022-08-11T08:05:41;2.22;;;2.05;;
17650;SDS011;26663;59.302;18.082;2022-08-11T08:09:04;4.65;;;2.03;;
17650;SDS011;26663;59.302;18.082;2022-08-11T08:12:30;2.28;;;2.00;;
17650;SDS011;26663;59.302;18.082;2022-08-11T08:15:53;5.32;;;2.38;;
17650;SDS011;26663;59.302;18.082;2022-08-11T08:19:18;2.35;;;2.15;;
17650;SDS011;26663;59.302;18.082;2022-08-11T08:22:24;2.30;;;2.10;;
17650;SDS011;26663;59.302;18.082;2022-08-11T08:25:49;2.17;;;2.08;;
17650;SDS011;26663;59.302;18.082;2022-08-11T08:28:59;3.95;;;2.20;;
17650;SDS011;26663;59.302;18.082;2022-08-11T08:32:21;4.60;;;2.30;;
17650;SDS011;26663;59.302;18.082;2022-08-11T08:35:27;2.92;;;2.40;;
17650;SDS011;26663;59.302;18.082;2022-08-11T08:38:36;2.53;;;2.20;;
17650;SDS011;26663;59.302;18.082;2022-08-11T08:41:43;5.07;;;2.47;;
17650;SDS011;26663;59.302;18.082;2022-08-11T08:44:53;4.00;;;3.50;;
17650;SDS011;26663;59.302;18.082;2022-08-11T08:48:03;5.65;;;4.40;;
17650;SDS011;26663;59.302;18.082;2022-08-11T08:51:11;3.42;;;3.13;;
17650;SDS011;26663;59.302;18.082;2022-08-11T08:54:56;6.45;;;2.33;;
17650;SDS011;26663;59.302;18.082;2022-08-11T08:58:06;4.63;;;2.13;;
17650;SDS011;26663;59.302;18.082;2022-08-11T09:01:14;2.75;;;2.05;;
17650;SDS011;26663;59.302;18.082;2022-08-11T09:04:20;2.20;;;2.10;;
17650;SDS011;26663;59.302;18.082;2022-08-11T09:07:25;2.20;;;2.00;;
17650;SDS011;26663;59.302;18.082;2022-08-11T09:10:41;5.70;;;2.28;;
17650;SDS011;26663;59.302;18.082;2022-08-11T09:13:46;7.50;;;2.78;;
17650;SDS011;26663;59.302;18.082;2022-08-11T09:17:10;2.03;;;1.83;;
17650;SDS011;26663;59.302;18.082;2022-08-11T09:20:16;2.63;;;2.10;;
17650;SDS011;26663;59.302;18.082;2022-08-11T09:23:24;4.55;;;2.38;;
17650;SDS011;26663;59.302;18.082;2022-08-11T09:27:07;4.22;;;2.20;;
17650;SDS011;26663;59.302;18.082;2022-08-11T09:30:14;2.00;;;1.90;;
17650;SDS011;26663;59.302;18.082;2022-08-11T09:33:22;2.80;;;2.08;;
17650;SDS011;26663;59.302;18.082;2022-08-11T09:36:27;2.75;;;2.10;;
17650;SDS011;26663;59.302;18.082;2022-08-11T09:39:51;7.70;;;2.30;;
17650;SDS011;26663;59.302;18.082;2022-08-11T09:43:15;1.88;;;1.80;;
17650;SDS011;26663;59.302;18.082;2022-08-11T09:46:40;2.58;;;2.03;;
17650;SDS011;26663;59.302;18.082;2022-08-11T09:49:46;4.50;;;2.28;;
17650;SDS011;26663;59.302;18.082;2022-08-11T09:52:53;11.23;;;4.07;;
17650;SDS011;26663;59.302;18.082;2022-08-11T09:56:19;6.60;;;2.55;;
17650;SDS011;26663;59.302;18.082;2022-08-11T09:59:44;2.80;;;1.88;;
17650;SDS011;26663;59.302;18.082;2022-08-11T10:02:49;3.40;;;3.17;;
17650;SDS011;26663;59.302;18.082;2022-08-11T10:05:58;2.33;;;2.13;;
17650;SDS011;26663;59.302;18.082;2022-08-11T10:09:37;3.05;;;2.10;;
17650;SDS011;26663;59.302;18.082;2022-08-11T10:12:46;3.15;;;2.08;;
17650;SDS011;26663;59.302;18.082;2022-08-11T10:15:55;3.50;;;2.22;;
17650;SDS011;26663;59.302;18.082;2022-08-11T10:19:18;2.13;;;1.90;;
17650;SDS011;26663;59.302;18.082;2022-08-11T10:22:26;2.25;;;1.90;;
17650;SDS011;26663;59.302;18.082;2022-08-11T10:25:49;3.15;;;2.03;;
17650;SDS011;26663;59.302;18.082;2022-08-11T10:29:13;6.93;;;3.05;;
17650;SDS011;26663;59.302;18.082;2022-08-11T10:32:46;8.75;;;3.15;;
17650;SDS011;26663;59.302;18.082;2022-08-11T10:36:16;3.10;;;2.83;;
17650;SDS011;26663;59.302;18.082;2022-08-11T10:39:23;2.40;;;2.28;;
17650;SDS011;26663;59.302;18.082;2022-08-11T10:42:30;2.55;;;2.13;;
17650;SDS011;26663;59.302;18.082;2022-08-11T10:46:00;5.18;;;2.08;;
17650;SDS011;26663;59.302;18.082;2022-08-11T10:49:33;2.00;;;1.90;;
17650;SDS011;26663;59.302;18.082;2022-08-11T10:52:38;6.65;;;2.10;;
17650;SDS011;26663;59.302;18.082;2022-08-11T10:56:03;4.68;;;2.22;;
17650;SDS011;26663;59.302;18.082;2022-08-11T10:59:26;2.53;;;2.00;;
17650;SDS011;26663;59.302;18.082;2022-08-11T11:02:32;2.67;;;2.10;;
17650;SDS011;26663;59.302;18.082;2022-08-11T11:05:38;2.15;;;1.80;;
17650;SDS011;26663;59.302;18.082;2022-08-11T11:09:06;3.33;;;3.13;;
17650;SDS011;26663;59.302;18.082;2022-08-11T11:12:23;2.05;;;1.95;;
17650;SDS011;26663;59.302;18.082;2022-08-11T11:15:48;3.20;;;2.08;;
17650;SDS011;26663;59.302;18.082;2022-08-11T11:19:10;1.95;;;1.80;;
17650;SDS011;26663;59.302;18.082;2022-08-11T11:22:17;1.67;;;1.67;;
17650;SDS011;26663;59.302;18.082;2022-08-11T11:25:46;4.57;;;1.70;;
17650;SDS011;26663;59.302;18.082;2022-08-11T11:29:26;1.95;;;1.77;;
17650;SDS011;26663;59.302;18.082;2022-08-11T11:32:40;2.83;;;1.98;;
17650;SDS011;26663;59.302;18.082;2022-08-11T11:35:54;1.65;;;1.55;;
17650;SDS011;26663;59.302;18.082;2022-08-11T11:39:10;1.75;;;1.67;;
17650;SDS011;26663;59.302;18.082;2022-08-11T11:42:16;2.60;;;1.50;;
17650;SDS011;26663;59.302;18.082;2022-08-11T11:45:23;5.10;;;1.50;;
17650;SDS011;26663;59.302;18.082;2022-08-11T11:48:29;4.65;;;1.45;;
17650;SDS011;26663;59.302;18.082;2022-08-11T11:51:35;4.00;;;3.13;;
17650;SDS011;26663;59.302;18.082;2022-08-11T11:54:41;2.65;;;2.50;;
17650;SDS011;26663;59.302;18.082;2022-08-11T11:57:46;1.63;;;1.52;;
17650;SDS011;26663;59.302;18.082;2022-08-11T12:01:11;1.67;;;1.58;;
17650;SDS011;26663;59.302;18.082;2022-08-11T12:04:21;1.70;;;1.60;;
17650;SDS011;26663;59.302;18.082;2022-08-11T12:07:27;2.70;;;1.88;;
17650;SDS011;26663;59.302;18.082;2022-08-11T12:11:11;2.75;;;1.73;;
17650;SDS011;26663;59.302;18.082;2022-08-11T12:14:34;1.48;;;1.48;;
17650;SDS011;26663;59.302;18.082;2022-08-11T12:17:41;1.50;;;1.50;;
17650;SDS011;26663;59.302;18.082;2022-08-11T12:20:46;1.60;;;1.50;;
17650;SDS011;26663;59.302;18.082;2022-08-11T12:23:52;1.58;;;1.58;;
17650;SDS011;26663;59.302;18.082;2022-08-11T12:27:16;3.90;;;2.10;;
17650;SDS011;26663;59.302;18.082;2022-08-11T12:30:27;1.98;;;1.88;;
17650;SDS011;26663;59.302;18.082;2022-08-11T12:33:34;3.92;;;1.77;;
17650;SDS011;26663;59.302;18.082;2022-08-11T12:36:42;3.38;;;1.60;;
17650;SDS011;26663;59.302;18.082;2022-08-11T12:39:52;1.40;;;1.38;;
17650;SDS011;26663;59.302;18.082;2022-08-11T12:43:41;1.48;;;1.40;;
17650;SDS011;26663;59.302;18.082;2022-08-11T12:47:09;1.40;;;1.40;;
17650;SDS011;26663;59.302;18.082;2022-08-11T12:50:16;1.35;;;1.20;;
17650;SDS011;26663;59.302;18.082;2022-08-11T12:53:41;1.90;;;1.50;;
17650;SDS011;26663;59.302;18.082;2022-08-11T12:56:52;1.80;;;1.70;;
17650;SDS011;26663;59.302;18.082;2022-08-11T13:00:39;1.38;;;1.27;;
17650;SDS011;26663;59.302;18.082;2022-08-11T13:04:02;3.13;;;1.80;;
17650;SDS011;26663;59.302;18.082;2022-08-11T13:07:27;1.75;;;1.25;;
17650;SDS011;26663;59.302;18.082;2022-08-11T13:10:53;1.48;;;1.35;;
17650;SDS011;26663;59.302;18.082;2022-08-11T13:14:18;1.60;;;1.60;;
17650;SDS011;26663;59.302;18.082;2022-08-11T13:17:24;1.58;;;1.58;;
17650;SDS011;26663;59.302;18.082;2022-08-11T13:20:46;5.20;;;1.83;;
17650;SDS011;26663;59.302;18.082;2022-08-11T13:23:53;3.17;;;2.08;;
17650;SDS011;26663;59.302;18.082;2022-08-11T13:27:05;5.78;;;3.38;;
17650;SDS011;26663;59.302;18.082;2022-08-11T13:30:11;2.50;;;1.95;;
17650;SDS011;26663;59.302;18.082;2022-08-11T13:33:41;2.15;;;1.70;;
17650;SDS011;26663;59.302;18.082;2022-08-11T13:36:51;5.55;;;1.77;;
17650;SDS011;26663;59.302;18.082;2022-08-11T13:39:59;1.80;;;1.70;;
17650;SDS011;26663;59.302;18.082;2022-08-11T13:43:05;10.75;;;1.98;;
17650;SDS011;26663;59.302;18.082;2022-08-11T13:46:11;3.30;;;1.48;;
17650;SDS011;26663;59.302;18.082;2022-08-11T13:49:24;2.55;;;1.45;;
17650;SDS011;26663;59.302;18.082;2022-08-11T13:52:30;3.40;;;1.50;;
17650;SDS011;26663;59.302;18.082;2022-08-11T13:55:38;1.63;;;1.50;;
17650;SDS011;26663;59.302;18.082;2022-08-11T13:58:54;1.52;;;1.17;;
17650;SDS011;26663;59.302;18.082;2022-08-11T14:02:01;5.55;;;1.40;;
17650;SDS011;26663;59.302;18.082;2022-08-11T14:05:30;2.20;;;1.60;;
17650;SDS011;26663;59.302;18.082;2022-08-11T14:08:42;1.63;;;1.63;;
17650;SDS011;26663;59.302;18.082;2022-08-11T14:11:51;2.65;;;1.48;;
17650;SDS011;26663;59.302;18.082;2022-08-11T14:15:27;3.40;;;1.63;;
17650;SDS011;26663;59.302;18.082;2022-08-11T14:18:35;1.73;;;1.35;;
17650;SDS011;26663;59.302;18.082;2022-08-11T14:21:47;1.65;;;1.55;;
17650;SDS011;26663;59.302;18.082;2022-08-11T14:25:12;2.15;;;1.48;;
17650;SDS011;26663;59.302;18.082;2022-08-11T14:28:20;2.17;;;1.30;;
17650;SDS011;26663;59.302;18.082;2022-08-11T14:31:46;3.10;;;1.52;;
17650;SDS011;26663;59.302;18.082;2022-08-11T14:34:56;2.58;;;1.60;;
17650;SDS011;26663;59.302;18.082;2022-08-11T14:38:03;2.13;;;1.60;;
17650;SDS011;26663;59.302;18.082;2022-08-11T14:41:08;5.05;;;1.70;;
17650;SDS011;26663;59.302;18.082;2022-08-11T14:44:34;5.93;;;1.73;;
17650;SDS011;26663;59.302;18.082;2022-08-11T14:47:58;4.60;;;1.92;;
17650;SDS011;26663;59.302;18.082;2022-08-11T14:51:05;1.88;;;1.52;;
17650;SDS011;26663;59.302;18.082;2022-08-11T14:54:11;1.40;;;1.40;;
17650;SDS011;26663;59.302;18.082;2022-08-11T14:57:35;4.03;;;1.58;;
17650;SDS011;26663;59.302;18.082;2022-08-11T15:01:00;1.58;;;1.58;;
17650;SDS011;26663;59.302;18.082;2022-08-11T15:04:26;1.70;;;1.65;;
17650;SDS011;26663;59.302;18.082;2022-08-11T15:07:39;4.22;;;1.65;;
17650;SDS011;26663;59.302;18.082;2022-08-11T15:10:44;4.88;;;1.70;;
17650;SDS011;26663;59.302;18.082;2022-08-11T15:13:50;1.95;;;1.45;;
17650;SDS011;26663;59.302;18.082;2022-08-11T15:16:57;2.15;;;1.50;;
17650;SDS011;26663;59.302;18.082;2022-08-11T15:20:13;2.25;;;1.58;;
17650;SDS011;26663;59.302;18.082;2022-08-11T15:23:46;7.70;;;1.63;;
17650;SDS011;26663;59.302;18.082;2022-08-11T15:27:10;1.33;;;1.33;;
17650;SDS011;26663;59.302;18.082;2022-08-11T15:30:35;3.03;;;1.73;;
17650;SDS011;26663;59.302;18.082;2022-08-11T15:34:01;1.77;;;1.70;;
17650;SDS011;26663;59.302;18.082;2022-08-11T15:37:26;1.83;;;1.70;;
17650;SDS011;26663;59.302;18.082;2022-08-11T15:40:34;1.85;;;1.75;;
17650;SDS011;26663;59.302;18.082;2022-08-11T15:44:00;6.35;;;1.50;;
17650;SDS011;26663;59.302;18.082;2022-08-11T15:47:47;1.55;;;1.45;;
17650;SDS011;26663;59.302;18.082;2022-08-11T15:51:11;1.40;;;1.40;;
17650;SDS011;26663;59.302;18.082;2022-08-11T15:54:29;1.27;;;1.27;;
17650;SDS011;26663;59.302;18.082;2022-08-11T15:57:36;2.38;;;1.60;;
17650;SDS011;26663;59.302;18.082;2022-08-11T16:00:59;3.90;;;2.03;;
17650;SDS011;26663;59.302;18.082;2022-08-11T16:04:23;1.50;;;1.50;;
17650;SDS011;26663;59.302;18.082;2022-08-11T16:07:32;2.72;;;1.40;;
17650;SDS011;26663;59.302;18.082;2022-08-11T16:10:43;4.53;;;1.85;;
17650;SDS011;26663;59.302;18.082;2022-08-11T16:13:52;2.25;;;1.80;;
17650;SDS011;26663;59.302;18.082;2022-08-11T16:17:24;1.90;;;1.70;;
17650;SDS011;26663;59.302;18.082;2022-08-11T16:20:32;3.10;;;1.63;;
17650;SDS011;26663;59.302;18.082;2022-08-11T16:23:40;2.00;;;1.50;;
17650;SDS011;26663;59.302;18.082;2022-08-11T16:26:48;2.05;;;1.40;;
17650;SDS011;26663;59.302;18.082;2022-08-11T16:30:14;2.90;;;2.70;;
17650;SDS011;26663;59.302;18.082;2022-08-11T16:33:19;3.55;;;1.60;;
17650;SDS011;26663;59.302;18.082;2022-08-11T16:36:46;1.83;;;1.65;;
17650;SDS011;26663;59.302;18.082;2022-08-11T16:40:11;5.07;;;1.60;;
17650;SDS011;26663;59.302;18.082;2022-08-11T16:43:17;2.70;;;1.35;;
17650;SDS011;26663;59.302;18.082;2022-08-11T16:46:41;2.38;;;2.10;;
17650;SDS011;26663;59.302;18.082;2022-08-11T16:50:07;2.33;;;1.70;;
17650;SDS011;26663;59.302;18.082;2022-08-11T16:53:14;6.20;;;1.60;;
17650;SDS011;26663;59.302;18.082;2022-08-11T16:56:22;1.55;;;1.50;;
17650;SDS011;26663;59.302;18.082;2022-08-11T16:59:32;3.85;;;1.60;;
17650;SDS011;26663;59.302;18.082;2022-08-11T17:02:40;1.98;;;1.55;;
17650;SDS011;26663;59.302;18.082;2022-08-11T17:06:07;2.63;;;1.85;;
17650;SDS011;26663;59.302;18.082;2022-08-11T17:09:33;2.03;;;1.88;;
17650;SDS011;26663;59.302;18.082;2022-08-11T17:12:57;1.73;;;1.52;;
17650;SDS011;26663;59.302;18.082;2022-08-11T17:16:13;5.97;;;1.95;;
17650;SDS011;26663;59.302;18.082;2022-08-11T17:19:23;1.70;;;1.60;;
17650;SDS011;26663;59.302;18.082;2022-08-11T17:22:50;7.28;;;1.92;;
17650;SDS011;26663;59.302;18.082;2022-08-11T17:26:20;4.43;;;1.60;;
17650;SDS011;26663;59.302;18.082;2022-08-11T17:29:55;4.90;;;1.70;;
17650;SDS011;26663;59.302;18.082;2022-08-11T17:33:01;4.60;;;1.90;;
17650;SDS011;26663;59.302;18.082;2022-08-11T17:36:24;3.75;;;1.70;;
17650;SDS011;26663;59.302;18.082;2022-08-11T17:39:31;6.47;;;1.65;;
17650;SDS011;26663;59.302;18.082;2022-08-11T17:42:38;1.35;;;1.35;;
17650;SDS011;26663;59.302;18.082;2022-08-11T17:46:02;2.00;;;1.30;;
17650;SDS011;26663;59.302;18.082;2022-08-11T17:49:26;5.25;;;1.40;;
17650;SDS011;26663;59.302;18.082;2022-08-11T17:52:33;1.70;;;1.60;;
17650;SDS011;26663;59.302;18.082;2022-08-11T17:55:56;2.50;;;1.50;;
17650;SDS011;26663;59.302;18.082;2022-08-11T17:59:30;3.97;;;1.48;;
17650;SDS011;26663;59.302;18.082;2022-08-11T18:02:56;1.77;;;1.60;;
17650;SDS011;26663;59.302;18.082;2022-08-11T18:06:20;6.10;;;1.67;;
17650;SDS011;26663;59.302;18.082;2022-08-11T18:09:37;9.65;;;2.15;;
17650;SDS011;26663;59.302;18.082;2022-08-11T18:13:00;18.20;;;2.53;;
17650;SDS011;26663;59.302;18.082;2022-08-11T18:16:23;12.50;;;2.20;;
17650;SDS011;26663;59.302;18.082;2022-08-11T18:19:47;20.45;;;2.38;;
17650;SDS011;26663;59.302;18.082;2022-08-11T18:23:10;14.02;;;2.28;;
17650;SDS011;26663;59.302;18.082;2022-08-11T18:26:48;17.75;;;2.58;;
17650;SDS011;26663;59.302;18.082;2022-08-11T18:30:11;8.07;;;2.20;;
17650;SDS011;26663;59.302;18.082;2022-08-11T18:33:35;18.73;;;2.53;;
17650;SDS011;26663;59.302;18.082;2022-08-11T18:37:18;18.42;;;2.85;;
17650;SDS011;26663;59.302;18.082;2022-08-11T18:40:46;8.45;;;2.42;;
17650;SDS011;26663;59.302;18.082;2022-08-11T18:44:10;8.18;;;2.10;;
17650;SDS011;26663;59.302;18.082;2022-08-11T18:47:34;6.32;;;1.98;;
17650;SDS011;26663;59.302;18.082;2022-08-11T18:50:59;2.72;;;2.00;;
17650;SDS011;26663;59.302;18.082;2022-08-11T18:54:40;5.97;;;1.80;;
17650;SDS011;26663;59.302;18.082;2022-08-11T18:58:06;3.33;;;2.13;;
17650;SDS011;26663;59.302;18.082;2022-08-11T19:01:31;2.95;;;1.90;;
17650;SDS011;26663;59.302;18.082;2022-08-11T19:04:57;2.72;;;1.70;;
17650;SDS011;26663;59.302;18.082;2022-08-11T19:08:20;7.35;;;1.98;;
17650;SDS011;26663;59.302;18.082;2022-08-11T19:11:45;4.50;;;1.98;;
17650;SDS011;26663;59.302;18.082;2022-08-11T19:15:09;6.15;;;1.95;;
17650;SDS011;26663;59.302;18.082;2022-08-11T19:18:33;7.88;;;2.45;;
17650;SDS011;26663;59.302;18.082;2022-08-11T19:21:57;8.05;;;2.30;;
17650;SDS011;26663;59.302;18.082;2022-08-11T19:25:21;10.77;;;2.58;;
17650;SDS011;26663;59.302;18.082;2022-08-11T19:28:47;49.38;;;4.10;;
17650;SDS011;26663;59.302;18.082;2022-08-11T19:32:31;44.88;;;4.72;;
17650;SDS011;26663;59.302;18.082;2022-08-11T19:35:54;43.55;;;4.40;;
17650;SDS011;26663;59.302;18.082;2022-08-11T19:39:18;66.93;;;5.57;;
17650;SDS011;26663;59.302;18.082;2022-08-11T19:42:42;60.72;;;5.55;;
17650;SDS011;26663;59.302;18.082;2022-08-11T19:46:18;67.63;;;5.43;;
17650;SDS011;26663;59.302;18.082;2022-08-11T19:49:43;61.88;;;5.82;;
17650;SDS011;26663;59.302;18.082;2022-08-11T19:53:10;55.63;;;5.53;;
17650;SDS011;26663;59.302;18.082;2022-08-11T19:56:33;32.83;;;5.20;;
17650;SDS011;26663;59.302;18.082;2022-08-11T19:59:57;27.75;;;3.72;;
17650;SDS011;26663;59.302;18.082;2022-08-11T20:03:21;23.17;;;3.97;;
17650;SDS011;26663;59.302;18.082;2022-08-11T20:06:44;20.73;;;3.65;;
17650;SDS011;26663;59.302;18.082;2022-08-11T20:10:09;15.98;;;3.30;;